LFPG 121000Z 25008KT 9999 FEW035 04/01 Q1011

ElémentsDécodage
LFPG Station météo située sur l'aérodrome de PARIS Charles-de-Gaulle
121000Z émis le 12 du mois à 10h00 UTC
25008KT vent du 250°, 08 noeuds
9999 visibilité horizontale supérieure à 10 Km
FEW035 nuages rares (1/8 à 2/8) à 3500 pieds
04/01 température 04°C, point de rosée 01°C
 soit une humidité relative de 81%
Q1011 la pression au niveau de la mer (QNH) est de 1011 hPa